createdAt,value
2019-02-16T00:02:21.605Z,98205.25
2019-02-16T00:04:52.578Z,98208.22
2019-02-16T00:07:22.705Z,98208.22
2019-02-16T00:12:22.542Z,98206.50
2019-02-16T00:14:52.724Z,98204.74
2019-02-16T00:17:22.975Z,98203.22
2019-02-16T00:19:53.147Z,98209.97
2019-02-16T00:22:23.365Z,98202.75
2019-02-16T00:24:53.527Z,98199.28
2019-02-16T00:27:24.588Z,98189.38
2019-02-16T00:29:55.846Z,98195.47
2019-02-16T00:32:27.026Z,98192.16
2019-02-16T00:34:57.275Z,98190.22
2019-02-16T00:37:27.483Z,98186.47
2019-02-16T00:39:58.504Z,98186.00
2019-02-16T00:42:28.667Z,98180.03
2019-02-16T00:44:58.796Z,98182.53
2019-02-16T00:47:28.931Z,98181.55
2019-02-16T00:49:59.123Z,98183.45
2019-02-16T00:52:29.238Z,98179.14
2019-02-16T00:54:59.373Z,98178.86
2019-02-16T00:57:29.510Z,98171.37
2019-02-16T00:59:59.736Z,98175.91
2019-02-16T01:02:29.919Z,98170.79
2019-02-16T01:05:00.297Z,98171.06
2019-02-16T01:07:30.542Z,98174.53
2019-02-16T01:10:00.755Z,98175.78
2019-02-16T01:12:31.699Z,98170.79
2019-02-16T01:15:01.882Z,98175.51
2019-02-16T01:17:32.040Z,98169.27
2019-02-16T01:20:02.235Z,98166.30
2019-02-16T01:22:32.380Z,98159.36
2019-02-16T01:25:02.551Z,98159.44
2019-02-16T01:27:32.741Z,98162.48
2019-02-16T01:30:03.876Z,98159.98
2019-02-16T01:32:34.776Z,98159.52
2019-02-16T01:35:05.018Z,98153.83
2019-02-16T01:37:36.774Z,98150.63
2019-02-16T01:40:10.776Z,98153.91
2019-02-16T01:42:40.930Z,98145.91
2019-02-16T01:45:13.039Z,98141.70
2019-02-16T01:47:43.213Z,98144.94
2019-02-16T01:50:13.423Z,98142.25
2019-02-16T01:52:45.247Z,98135.54
2019-02-16T01:55:15.439Z,98143.02
2019-02-16T01:57:47.118Z,98138.77
2019-02-16T02:00:17.718Z,98140.53
2019-02-16T02:02:48.007Z,98136.78
2019-02-16T02:05:18.241Z,98131.02
2019-02-16T02:07:48.449Z,98122.55
2019-02-16T02:10:18.583Z,98121.11
2019-02-16T02:12:49.495Z,98121.66
2019-02-16T02:15:20.397Z,98119.94
2019-02-16T02:17:51.395Z,98118.19
2019-02-16T02:20:22.335Z,98113.20
2019-02-16T02:22:52.587Z,98111.11
2019-02-16T02:25:22.745Z,98112.23
2019-02-16T02:27:52.895Z,98110.61
2019-02-16T02:30:23.858Z,98113.98
2019-02-16T02:32:54.764Z,98106.22
2019-02-16T02:35:25.676Z,98106.69
2019-02-16T02:37:55.855Z,98111.48
2019-02-16T02:40:26.035Z,98109.26
2019-02-16T02:42:57.143Z,98113.78
2019-02-16T02:45:27.779Z,98105.09
2019-02-16T02:47:57.975Z,98101.16
2019-02-16T02:50:28.113Z,98100.68
2019-02-16T02:52:59.121Z,98101.42
2019-02-16T02:55:30.131Z,98104.70
2019-02-16T02:58:00.385Z,98105.44
2019-02-16T03:00:30.583Z,98100.52
2019-02-16T03:03:01.510Z,98102.55
2019-02-16T03:05:31.671Z,98105.04
2019-02-16T03:08:01.848Z,98103.09
2019-02-16T03:10:32.067Z,98104.41
2019-02-16T03:13:02.199Z,98106.37
2019-02-16T03:15:32.412Z,98111.32
2019-02-16T03:18:03.394Z,98102.36
2019-02-16T03:20:35.107Z,98105.13
2019-02-16T03:23:15.904Z,98107.41
2019-02-16T03:25:50.471Z,98101.95
2019-02-16T03:28:29.003Z,98101.45
2019-02-16T03:31:38.689Z,98100.47
2019-02-16T03:34:22.375Z,98095.02
2019-02-16T03:37:07.069Z,98094.81
2019-02-16T03:39:41.681Z,98099.56
2019-02-16T03:42:11.850Z,98097.84
2019-02-16T03:44:42.785Z,98101.84
2019-02-16T03:47:12.917Z,98096.66
2019-02-16T03:49:44.048Z,98097.41
2019-02-16T03:52:14.462Z,98097.41
2019-02-16T03:54:45.642Z,98103.90
2019-02-16T03:57:15.845Z,98102.92
2019-02-16T03:59:46.080Z,98104.47
2019-02-16T04:02:17.725Z,98104.23
2019-02-16T04:04:47.905Z,98107.76
2019-02-16T04:07:18.036Z,98105.73
2019-02-16T04:09:48.237Z,98108.13
2019-02-16T04:12:19.294Z,98117.12
2019-02-16T04:14:50.371Z,98114.52
2019-02-16T04:17:20.952Z,98117.78
2019-02-16T04:19:52.962Z,98116.03
2019-02-16T04:22:24.838Z,98121.28
2019-02-16T04:24:54.978Z,98124.17
2019-02-16T04:27:26.626Z,98133.05
2019-02-16T04:29:56.812Z,98133.11
2019-02-16T04:32:28.508Z,98128.41
2019-02-16T04:34:59.415Z,98126.30
2019-02-16T04:37:29.806Z,98119.91
2019-02-16T04:40:00.800Z,98121.41
2019-02-16T04:42:30.980Z,98129.09
2019-02-16T04:45:01.170Z,98132.67
2019-02-16T04:47:32.948Z,98141.02
2019-02-16T04:50:03.118Z,98133.81
2019-02-16T04:52:35.267Z,98137.65
2019-02-16T04:55:06.730Z,98138.95
2019-02-16T04:57:37.316Z,98139.46
2019-02-16T05:00:08.381Z,98135.84
2019-02-16T05:02:38.598Z,98140.75
2019-02-16T05:05:08.785Z,98134.79
2019-02-16T05:07:39.011Z,98142.69
2019-02-16T05:10:09.395Z,98134.22
2019-02-16T05:12:39.647Z,98138.17
2019-02-16T05:15:09.970Z,98143.15
2019-02-16T05:17:40.274Z,98136.20
2019-02-16T05:20:10.561Z,98142.16
2019-02-16T05:22:44.654Z,98136.92
2019-02-16T05:25:12.801Z,98140.40
2019-02-16T05:27:42.970Z,98155.81
2019-02-16T05:30:13.144Z,98155.08
2019-02-16T05:32:43.456Z,98156.58
2019-02-16T05:35:15.203Z,98153.11
2019-02-16T05:37:46.691Z,98151.91
2019-02-16T05:40:18.883Z,98152.64
2019-02-16T05:42:49.103Z,98155.13
2019-02-16T05:45:19.732Z,98157.88
2019-02-16T05:47:49.919Z,98165.64
2019-02-16T05:50:20.112Z,98161.29
2019-02-16T05:52:54.421Z,98164.14
2019-02-16T05:55:23.168Z,98168.65
2019-02-16T05:57:54.196Z,98168.39
2019-02-16T06:00:27.422Z,98164.95
2019-02-16T06:02:57.620Z,98168.17
2019-02-16T06:05:27.733Z,98173.92
2019-02-16T06:07:57.911Z,98179.64
2019-02-16T06:10:28.165Z,98182.13
2019-02-16T06:12:58.405Z,98181.91
2019-02-16T06:15:28.649Z,98178.69
2019-02-16T06:17:58.837Z,98181.69
2019-02-16T06:20:29.096Z,98183.70
2019-02-16T06:23:04.459Z,98188.68
2019-02-16T06:25:31.195Z,98183.70
2019-02-16T06:28:02.357Z,98195.27
2019-02-16T06:30:32.554Z,98195.37
2019-02-16T06:33:02.711Z,98198.85
2019-02-16T06:35:40.625Z,98203.56
2019-02-16T06:38:10.811Z,98205.33
2019-02-16T06:40:41.250Z,98200.60
2019-02-16T06:43:13.137Z,98208.66
2019-02-16T06:45:44.103Z,98210.05
2019-02-16T06:48:14.265Z,98215.97
2019-02-16T06:50:44.428Z,98220.95
2019-02-16T06:53:15.368Z,98230.42
2019-02-16T06:56:07.311Z,98230.42
2019-02-16T06:58:37.666Z,98239.14
2019-02-16T07:01:07.819Z,98241.55
2019-02-16T07:03:38.118Z,98245.42
2019-02-16T07:06:10.823Z,98246.89
2019-02-16T07:08:44.071Z,98246.38
2019-02-16T07:11:13.738Z,98246.13
2019-02-16T07:13:43.938Z,98249.56
2019-02-16T07:16:31.805Z,98247.70
2019-02-16T07:19:05.983Z,98247.33
2019-02-16T07:21:36.157Z,98247.33
2019-02-16T07:24:06.436Z,98241.11
2019-02-16T07:26:36.716Z,98240.09
2019-02-16T07:29:07.016Z,98238.55
2019-02-16T07:31:37.300Z,98245.51
2019-02-16T07:34:09.090Z,98240.75
2019-02-16T07:36:41.980Z,98244.22
2019-02-16T07:39:12.205Z,98244.44
2019-02-16T07:41:42.488Z,98241.07
2019-02-16T07:44:34.712Z,98249.13
2019-02-16T07:47:26.346Z,98245.79
2019-02-16T07:50:17.938Z,98244.62
2019-02-16T07:53:07.956Z,98244.09
2019-02-16T07:55:57.897Z,98245.56
2019-02-16T07:58:35.281Z,98248.67
2019-02-16T08:01:24.365Z,98243.80
2019-02-16T08:04:19.105Z,98249.77
2019-02-16T08:07:11.971Z,98251.95
2019-02-16T08:10:00.524Z,98249.89
2019-02-16T08:12:50.407Z,98248.06
2019-02-16T08:15:28.069Z,98248.06
2019-02-16T08:18:20.958Z,98231.81
2019-02-16T08:21:15.906Z,98248.89
2019-02-16T08:24:03.947Z,98243.80
2019-02-16T08:26:53.349Z,98245.23
2019-02-16T08:29:45.474Z,98244.91
2019-02-16T08:32:26.127Z,98248.06
2019-02-16T08:35:23.896Z,98242.75
2019-02-16T08:38:18.835Z,98241.64
2019-02-16T08:41:01.230Z,98234.06
2019-02-16T08:43:50.940Z,98235.69
2019-02-16T08:46:47.263Z,98232.08
2019-02-16T08:49:28.261Z,98228.20
2019-02-16T08:52:14.825Z,98225.08
2019-02-16T08:55:00.569Z,98223.22
2019-02-16T08:57:55.705Z,98217.50
2019-02-16T09:00:45.969Z,98221.97
2019-02-16T09:03:44.324Z,98219.34
2019-02-16T09:06:48.651Z,98223.70
2019-02-16T09:09:36.658Z,98229.01
2019-02-16T09:12:39.561Z,98227.36
2019-02-16T09:15:46.710Z,98227.36
2019-02-16T09:18:42.669Z,98226.52
2019-02-16T09:21:28.859Z,98217.99
2019-02-16T09:24:25.177Z,98209.55
2019-02-16T09:27:29.472Z,98212.03
2019-02-16T09:30:17.349Z,98207.83
2019-02-16T09:33:12.741Z,98210.81
2019-02-16T09:36:00.626Z,98202.80
2019-02-16T09:38:48.272Z,98206.26
2019-02-16T09:41:50.493Z,98206.50
2019-02-16T09:44:42.580Z,98208.89
2019-02-16T09:47:30.331Z,98202.48
2019-02-16T09:50:15.545Z,98202.37
2019-02-16T09:53:16.724Z,98205.05
2019-02-16T09:56:03.882Z,98202.87
2019-02-16T09:58:42.078Z,98202.87
2019-02-16T10:01:37.638Z,98202.81
2019-02-16T10:04:24.014Z,98211.83
2019-02-16T10:07:13.243Z,98209.84
2019-02-16T10:09:51.533Z,98200.34
2019-02-16T10:12:43.536Z,98204.64
2019-02-16T10:15:26.718Z,98199.38
2019-02-16T10:18:18.630Z,98199.44
2019-02-16T10:21:14.625Z,98196.98
2019-02-16T10:24:17.981Z,98198.09
2019-02-16T10:27:02.127Z,98200.33
2019-02-16T10:29:56.851Z,98199.11
2019-02-16T10:32:45.991Z,98198.03
2019-02-16T10:35:33.889Z,98193.63
2019-02-16T10:38:20.573Z,98189.08
2019-02-16T10:41:08.118Z,98201.47
2019-02-16T10:44:02.973Z,98202.73
2019-02-16T10:46:55.091Z,98202.58
2019-02-16T10:49:44.289Z,98197.20
2019-02-16T10:52:39.137Z,98192.17
2019-02-16T10:55:45.277Z,98184.95
2019-02-16T10:58:58.253Z,98177.36
2019-02-16T11:02:20.254Z,98175.92
2019-02-16T11:05:33.210Z,98170.83
2019-02-16T11:08:34.127Z,98169.86
2019-02-16T11:11:39.243Z,98164.45
2019-02-16T11:14:47.721Z,98164.23
2019-02-16T11:18:09.690Z,98153.66
2019-02-16T11:21:18.704Z,98156.63
2019-02-16T11:24:26.466Z,98152.61
2019-02-16T11:27:29.803Z,98140.91
2019-02-16T11:30:46.812Z,98146.49
2019-02-16T11:34:03.490Z,98142.96
2019-02-16T11:37:25.320Z,98133.77
2019-02-16T11:40:41.426Z,98136.59
2019-02-16T11:43:51.678Z,98133.93
2019-02-16T11:47:00.198Z,98136.45
2019-02-16T11:50:16.188Z,98133.11
2019-02-16T11:53:23.885Z,98128.66
2019-02-16T11:56:33.941Z,98125.09
2019-02-16T11:59:37.050Z,98123.02
2019-02-16T12:02:46.657Z,98119.94
2019-02-16T12:05:56.910Z,98116.98
2019-02-16T12:09:06.399Z,98108.84
2019-02-16T12:12:19.843Z,98103.28
2019-02-16T12:15:28.373Z,98105.94
2019-02-16T12:18:52.388Z,98095.13
2019-02-16T12:22:01.857Z,98090.77
2019-02-16T12:25:19.935Z,98087.82
2019-02-16T12:28:36.652Z,98088.27
2019-02-16T12:31:46.595Z,98085.85
2019-02-16T12:34:55.912Z,98078.61
2019-02-16T12:38:06.610Z,98076.59
2019-02-16T12:41:15.536Z,98070.14
2019-02-16T12:44:31.366Z,98061.03
2019-02-16T12:47:48.666Z,98056.20
2019-02-16T12:51:03.693Z,98053.77
2019-02-16T12:54:15.463Z,98042.73
2019-02-16T12:57:24.465Z,98045.02
2019-02-16T13:00:34.885Z,98037.27
2019-02-16T13:03:42.713Z,98038.23
2019-02-16T13:06:57.496Z,98037.36
2019-02-16T13:10:09.279Z,98033.31
2019-02-16T13:13:20.091Z,98035.84
2019-02-16T13:16:30.367Z,98033.57
2019-02-16T13:19:37.175Z,98026.37
2019-02-16T13:22:47.315Z,98024.31
2019-02-16T13:25:48.846Z,98023.80
2019-02-16T13:28:58.650Z,98018.59
2019-02-16T13:32:22.456Z,98014.27
2019-02-16T13:35:33.181Z,98014.20
2019-02-16T13:38:41.260Z,98015.41
2019-02-16T13:41:46.861Z,98011.94
2019-02-16T13:45:01.798Z,98009.99
2019-02-16T13:48:15.553Z,98007.03
2019-02-16T13:51:24.348Z,98002.83
2019-02-16T13:54:43.026Z,98002.00
2019-02-16T13:57:52.955Z,97996.06
2019-02-16T14:01:01.607Z,97990.80
2019-02-16T14:04:11.740Z,97987.34
2019-02-16T14:07:22.531Z,97985.98
2019-02-16T14:10:28.072Z,97984.55
2019-02-16T14:13:38.861Z,97973.35
2019-02-16T14:16:55.129Z,97975.92
2019-02-16T14:19:52.936Z,97972.96
2019-02-16T14:22:49.594Z,97974.70
2019-02-16T14:25:51.053Z,97970.47
2019-02-16T14:28:48.542Z,97962.64
2019-02-16T14:31:43.272Z,97969.05
2019-02-16T14:34:41.151Z,97962.97
2019-02-16T14:37:53.421Z,97966.48
2019-02-16T14:40:51.111Z,97964.23
2019-02-16T14:43:47.465Z,97957.28
2019-02-16T14:46:43.627Z,97964.67
2019-02-16T14:49:41.688Z,97960.75
2019-02-16T14:52:38.591Z,97957.22
2019-02-16T14:55:51.555Z,97959.06
2019-02-16T14:58:37.943Z,97946.38
2019-02-16T15:01:35.614Z,97947.44
2019-02-16T15:04:32.209Z,97945.27
2019-02-16T15:07:27.309Z,97942.22
2019-02-16T15:10:26.203Z,97941.76
2019-02-16T15:13:21.892Z,97932.77
2019-02-16T15:16:18.604Z,97933.30
2019-02-16T15:19:13.499Z,97938.83
2019-02-16T15:22:11.104Z,97931.55
2019-02-16T15:25:06.708Z,97930.79
2019-02-16T15:28:03.591Z,97923.05
2019-02-16T15:31:01.189Z,97921.13
2019-02-16T15:33:57.237Z,97924.98
2019-02-16T15:36:53.818Z,97923.02
2019-02-16T15:39:49.369Z,97921.84
2019-02-16T15:42:45.640Z,97912.78
2019-02-16T15:45:47.522Z,97908.66
2019-02-16T15:48:45.246Z,97914.24
2019-02-16T15:51:41.721Z,97911.23
2019-02-16T15:54:37.659Z,97913.25
2019-02-16T15:57:34.329Z,97898.28
2019-02-16T16:00:32.394Z,97914.85
2019-02-16T16:03:29.791Z,97912.72
2019-02-16T16:06:27.548Z,97914.78
2019-02-16T16:09:40.501Z,97920.17
2019-02-16T16:12:54.692Z,97920.13
2019-02-16T16:16:08.912Z,97920.13
2019-02-16T16:19:32.021Z,97920.09
2019-02-16T16:22:35.039Z,97923.48
2019-02-16T16:25:45.741Z,97926.45
2019-02-16T16:29:00.651Z,97920.16
2019-02-16T16:32:08.120Z,97921.09
2019-02-16T16:35:20.131Z,97918.51
2019-02-16T16:38:27.534Z,97919.79
2019-02-16T16:41:50.995Z,97928.58
2019-02-16T16:45:13.556Z,97931.51
2019-02-16T16:48:23.075Z,97933.42
2019-02-16T16:51:38.745Z,97927.65
2019-02-16T16:54:47.869Z,97931.67
2019-02-16T16:58:12.495Z,97934.84
2019-02-16T17:01:18.377Z,97937.75
2019-02-16T17:04:31.333Z,97950.64
2019-02-16T17:07:41.203Z,97950.91
2019-02-16T17:10:49.954Z,97961.40
2019-02-16T17:13:58.802Z,97958.41
2019-02-16T17:17:10.136Z,97960.93
2019-02-16T17:20:16.083Z,97955.77
2019-02-16T17:23:25.799Z,97962.89
2019-02-16T17:26:41.048Z,97965.67
2019-02-16T17:29:49.303Z,97966.86
2019-02-16T17:33:07.447Z,97968.46
2019-02-16T17:36:17.220Z,97967.61
2019-02-16T17:39:37.516Z,97969.65
2019-02-16T17:42:54.824Z,97973.39
2019-02-16T17:46:07.245Z,97974.48
2019-02-16T17:49:30.623Z,97970.04
2019-02-16T17:52:39.633Z,97969.08
2019-02-16T17:55:43.728Z,97967.48
2019-02-16T17:59:07.714Z,97975.97
2019-02-16T18:02:08.032Z,97982.47
2019-02-16T18:05:18.205Z,97987.67
2019-02-16T18:08:26.728Z,97984.22
2019-02-16T18:11:28.957Z,97981.73
2019-02-16T18:14:38.948Z,97985.81
2019-02-16T18:18:11.992Z,97982.38
2019-02-16T18:21:30.497Z,97979.05
2019-02-16T18:24:41.134Z,97981.13
2019-02-16T18:27:51.798Z,97978.17
2019-02-16T18:31:02.994Z,97980.25
2019-02-16T18:34:13.141Z,97979.80
2019-02-16T18:37:22.675Z,97986.13
2019-02-16T18:40:36.990Z,97995.72
2019-02-16T18:43:50.216Z,97990.09
2019-02-16T18:47:01.276Z,97994.52
2019-02-16T18:50:09.819Z,97995.31
2019-02-16T18:53:28.880Z,97987.91
2019-02-16T18:56:43.074Z,97993.89
2019-02-16T18:59:54.714Z,97996.08
2019-02-16T19:03:04.250Z,97994.05
2019-02-16T19:06:13.262Z,97995.44
2019-02-16T19:09:22.650Z,97990.12
2019-02-16T19:12:38.981Z,97994.80
2019-02-16T19:15:50.350Z,97990.25
2019-02-16T19:19:04.706Z,97989.30
2019-02-16T19:22:24.645Z,97989.12
2019-02-16T19:25:33.447Z,97987.83
2019-02-16T19:28:47.344Z,97982.31
2019-02-16T19:32:09.871Z,97986.94
2019-02-16T19:35:21.383Z,97986.52
2019-02-16T19:38:28.736Z,97990.23
2019-02-16T19:41:32.485Z,97986.45
2019-02-16T19:44:42.850Z,97983.44
2019-02-16T19:47:56.340Z,97984.64
2019-02-16T19:51:04.779Z,97982.57
2019-02-16T19:54:21.164Z,97985.52
2019-02-16T19:57:31.551Z,97986.90
2019-02-16T20:00:46.977Z,97989.24
2019-02-16T20:03:54.711Z,97980.41
2019-02-16T20:07:06.617Z,97981.04
2019-02-16T20:10:30.357Z,97975.38
2019-02-16T20:13:35.461Z,97981.27
2019-02-16T20:16:41.362Z,97985.16
2019-02-16T20:19:53.112Z,97982.28
2019-02-16T20:23:03.864Z,97984.16
2019-02-16T20:26:13.927Z,97993.34
2019-02-16T20:29:27.847Z,97992.97
2019-02-16T20:32:49.874Z,97993.38
2019-02-16T20:36:19.090Z,97991.30
2019-02-16T20:39:31.959Z,97989.30
2019-02-16T20:42:40.553Z,97995.67
2019-02-16T20:45:57.744Z,97991.63
2019-02-16T20:49:17.252Z,97991.91
2019-02-16T20:52:33.549Z,97992.53
2019-02-16T20:55:50.947Z,97989.06
2019-02-16T20:59:05.239Z,97991.69
2019-02-16T21:02:13.649Z,97991.77
2019-02-16T21:05:29.806Z,97987.84
2019-02-16T21:08:53.526Z,97993.12
2019-02-16T21:11:57.366Z,97983.70
2019-02-16T21:14:56.967Z,97985.94
2019-02-16T21:18:05.433Z,97984.11
2019-02-16T21:21:27.270Z,97990.97
2019-02-16T21:24:43.252Z,97983.55
2019-02-16T21:27:58.036Z,97994.52
2019-02-16T21:31:07.903Z,97983.09
2019-02-16T21:34:10.602Z,97986.17
2019-02-16T21:37:24.507Z,97985.88
2019-02-16T21:40:36.508Z,97987.63
2019-02-16T21:43:43.187Z,97982.83
2019-02-16T21:46:53.751Z,97980.69
2019-02-16T21:50:03.712Z,97978.98
2019-02-16T21:53:09.196Z,97974.64
2019-02-16T21:56:20.879Z,97963.59
2019-02-16T21:59:34.189Z,97970.16
2019-02-16T22:02:44.935Z,97960.73
2019-02-16T22:05:51.333Z,97961.30
2019-02-16T22:09:09.646Z,97964.37
2019-02-16T22:12:15.811Z,97963.91
2019-02-16T22:15:12.301Z,97961.03
2019-02-16T22:18:08.537Z,97964.19
2019-02-16T22:21:05.111Z,97972.33
2019-02-16T22:24:05.808Z,97965.53
2019-02-16T22:27:10.830Z,97967.81
2019-02-16T22:30:06.328Z,97963.42
2019-02-16T22:33:02.965Z,97966.30
2019-02-16T22:35:58.446Z,97971.66
2019-02-16T22:38:55.100Z,97961.86
2019-02-16T22:41:52.178Z,97964.92
2019-02-16T22:44:48.923Z,97962.62
2019-02-16T22:47:52.758Z,97964.55
2019-02-16T22:50:54.177Z,97952.82
2019-02-16T22:53:50.389Z,97961.09
2019-02-16T22:56:45.963Z,97958.37
2019-02-16T22:59:42.566Z,97959.90
2019-02-16T23:02:38.086Z,97960.69
2019-02-16T23:05:34.737Z,97956.47
2019-02-16T23:08:32.575Z,97957.22
2019-02-16T23:11:39.484Z,97956.06
2019-02-16T23:14:36.302Z,97938.28
2019-02-16T23:17:33.100Z,97951.54
2019-02-16T23:20:29.844Z,97953.44
2019-02-16T23:23:26.688Z,97948.77
2019-02-16T23:26:23.524Z,97947.80
2019-02-16T23:29:18.349Z,97947.57
2019-02-16T23:32:14.987Z,97943.17
2019-02-16T23:35:11.656Z,97941.92
2019-02-16T23:38:08.308Z,97940.45
2019-02-16T23:41:06.478Z,97943.53
2019-02-16T23:44:00.709Z,97943.31
2019-02-16T23:46:58.378Z,97939.98
2019-02-16T23:49:54.072Z,97941.59
2019-02-16T23:52:49.603Z,97942.16
2019-02-16T23:55:46.117Z,97941.41
2019-02-16T23:58:49.220Z,97944.65
